sensor_id;sensor_type;location;lat;lon;timestamp;pressure;altitude;pressure_sealevel;temperature;humidity
35224;BME280;21367;51.930;8.112;2023-02-26T00:04:49;101062.19;;;-0.06;89.81
35224;BME280;21367;51.930;8.112;2023-02-26T00:09:55;101074.91;;;-0.24;89.79
35224;BME280;21367;51.930;8.112;2023-02-26T00:15:01;101084.22;;;-0.14;89.51
35224;BME280;21367;51.930;8.112;2023-02-26T00:20:07;101088.59;;;-0.03;88.86
35224;BME280;21367;51.930;8.112;2023-02-26T00:25:14;101087.19;;;0.10;88.44
35224;BME280;21367;51.930;8.112;2023-02-26T00:30:18;101098.34;;;0.03;87.76
35224;BME280;21367;51.930;8.112;2023-02-26T00:35:22;101097.03;;;-0.49;88.97
35224;BME280;21367;51.930;8.112;2023-02-26T00:40:35;101110.47;;;-0.31;89.82
35224;BME280;21367;51.930;8.112;2023-02-26T00:45:43;101111.03;;;-0.52;89.92
35224;BME280;21367;51.930;8.112;2023-02-26T00:50:54;101113.22;;;-0.83;89.96
35224;BME280;21367;51.930;8.112;2023-02-26T00:56:03;101116.50;;;-0.84;90.39
35224;BME280;21367;51.930;8.112;2023-02-26T01:01:07;101126.34;;;-1.13;90.69
35224;BME280;21367;51.930;8.112;2023-02-26T01:06:12;101132.25;;;-1.04;90.53
35224;BME280;21367;51.930;8.112;2023-02-26T01:11:20;101130.06;;;-0.64;89.13
35224;BME280;21367;51.930;8.112;2023-02-26T01:16:27;101129.91;;;-0.66;88.11
35224;BME280;21367;51.930;8.112;2023-02-26T01:21:34;101139.59;;;-0.71;88.29
35224;BME280;21367;51.930;8.112;2023-02-26T01:26:44;101144.72;;;-0.52;87.00
35224;BME280;21367;51.930;8.112;2023-02-26T01:31:54;101140.19;;;-0.73;87.21
35224;BME280;21367;51.930;8.112;2023-02-26T01:37:04;101146.06;;;-0.55;85.84
35224;BME280;21367;51.930;8.112;2023-02-26T01:42:17;101147.19;;;-0.88;86.18
35224;BME280;21367;51.930;8.112;2023-02-26T01:47:27;101153.97;;;-0.70;85.68
35224;BME280;21367;51.930;8.112;2023-02-26T01:58:33;101159.25;;;-0.49;83.72
35224;BME280;21367;51.930;8.112;2023-02-26T02:03:40;101162.88;;;-0.56;83.21
35224;BME280;21367;51.930;8.112;2023-02-26T02:08:45;101170.75;;;-0.70;83.74
35224;BME280;21367;51.930;8.112;2023-02-26T02:14:01;101171.59;;;-0.52;83.85
35224;BME280;21367;51.930;8.112;2023-02-26T02:19:27;101165.28;;;-0.75;83.72
35224;BME280;21367;51.930;8.112;2023-02-26T02:24:45;101164.28;;;-0.94;83.79
35224;BME280;21367;51.930;8.112;2023-02-26T02:30:02;101166.09;;;-0.93;83.65
35224;BME280;21367;51.930;8.112;2023-02-26T02:35:17;101175.91;;;-1.66;85.34
35224;BME280;21367;51.930;8.112;2023-02-26T02:40:27;101181.53;;;-1.42;86.40
35224;BME280;21367;51.930;8.112;2023-02-26T02:45:41;101190.13;;;-1.75;86.09
35224;BME280;21367;51.930;8.112;2023-02-26T02:50:52;101205.28;;;-1.31;85.66
35224;BME280;21367;51.930;8.112;2023-02-26T02:56:00;101209.09;;;-1.70;86.30
35224;BME280;21367;51.930;8.112;2023-02-26T03:01:11;101216.97;;;-1.58;86.06
35224;BME280;21367;51.930;8.112;2023-02-26T03:06:19;101216.25;;;-2.07;86.45
35224;BME280;21367;51.930;8.112;2023-02-26T03:11:24;101232.72;;;-1.34;86.51
35224;BME280;21367;51.930;8.112;2023-02-26T03:16:48;101238.59;;;-2.19;86.58
35224;BME280;21367;51.930;8.112;2023-02-26T03:22:00;101241.41;;;-1.57;86.71
35224;BME280;21367;51.930;8.112;2023-02-26T03:27:34;101260.28;;;-1.36;85.97
35224;BME280;21367;51.930;8.112;2023-02-26T03:32:44;101264.28;;;-2.06;85.78
35224;BME280;21367;51.930;8.112;2023-02-26T03:38:00;101272.97;;;-1.78;85.88
35224;BME280;21367;51.930;8.112;2023-02-26T03:43:08;101281.47;;;-2.02;85.98
35224;BME280;21367;51.930;8.112;2023-02-26T03:48:17;101290.28;;;-2.14;86.12
35224;BME280;21367;51.930;8.112;2023-02-26T03:53:27;101293.09;;;-1.87;85.42
35224;BME280;21367;51.930;8.112;2023-02-26T03:58:39;101301.53;;;-1.44;85.29
35224;BME280;21367;51.930;8.112;2023-02-26T04:04:16;101295.44;;;-1.37;82.93
35224;BME280;21367;51.930;8.112;2023-02-26T04:09:24;101314.59;;;-2.39;86.36
35224;BME280;21367;51.930;8.112;2023-02-26T04:14:29;101320.94;;;-2.18;86.29
35224;BME280;21367;51.930;8.112;2023-02-26T04:19:33;101321.53;;;-1.79;86.65
35224;BME280;21367;51.930;8.112;2023-02-26T04:24:40;101323.44;;;-1.94;85.18
35224;BME280;21367;51.930;8.112;2023-02-26T04:29:46;101331.84;;;-1.69;85.21
35224;BME280;21367;51.930;8.112;2023-02-26T04:34:50;101347.31;;;-1.48;84.28
35224;BME280;21367;51.930;8.112;2023-02-26T04:39:56;101362.53;;;-1.64;84.28
35224;BME280;21367;51.930;8.112;2023-02-26T04:45:00;101363.31;;;-1.56;83.88
35224;BME280;21367;51.930;8.112;2023-02-26T04:50:07;101372.19;;;-1.51;83.75
35224;BME280;21367;51.930;8.112;2023-02-26T04:55:14;101370.78;;;-1.41;83.52
35224;BME280;21367;51.930;8.112;2023-02-26T05:00:18;101374.91;;;-1.50;83.09
35224;BME280;21367;51.930;8.112;2023-02-26T05:05:22;101386.00;;;-1.48;83.34
35224;BME280;21367;51.930;8.112;2023-02-26T05:10:29;101392.66;;;-1.48;83.39
35224;BME280;21367;51.930;8.112;2023-02-26T05:15:33;101400.09;;;-1.41;83.15
35224;BME280;21367;51.930;8.112;2023-02-26T05:20:37;101407.28;;;-1.20;82.47
35224;BME280;21367;51.930;8.112;2023-02-26T05:25:43;101407.09;;;-1.38;82.67
35224;BME280;21367;51.930;8.112;2023-02-26T05:30:48;101418.41;;;-1.68;84.04
35224;BME280;21367;51.930;8.112;2023-02-26T05:35:52;101421.16;;;-1.74;84.04
35224;BME280;21367;51.930;8.112;2023-02-26T05:41:00;101431.66;;;-1.53;83.90
35224;BME280;21367;51.930;8.112;2023-02-26T05:46:04;101439.94;;;-1.54;83.96
35224;BME280;21367;51.930;8.112;2023-02-26T05:51:07;101441.06;;;-1.68;83.63
35224;BME280;21367;51.930;8.112;2023-02-26T05:56:14;101448.38;;;-1.63;83.90
35224;BME280;21367;51.930;8.112;2023-02-26T06:01:17;101467.91;;;-1.69;83.95
35224;BME280;21367;51.930;8.112;2023-02-26T06:06:21;101475.03;;;-1.65;84.48
35224;BME280;21367;51.930;8.112;2023-02-26T06:11:29;101481.81;;;-1.72;84.36
35224;BME280;21367;51.930;8.112;2023-02-26T06:16:33;101498.50;;;-1.81;84.55
35224;BME280;21367;51.930;8.112;2023-02-26T06:21:37;101508.09;;;-1.86;85.21
35224;BME280;21367;51.930;8.112;2023-02-26T06:26:43;101511.16;;;-1.89;86.36
35224;BME280;21367;51.930;8.112;2023-02-26T06:31:47;101526.84;;;-1.75;85.83
35224;BME280;21367;51.930;8.112;2023-02-26T06:36:50;101540.97;;;-1.69;85.17
35224;BME280;21367;51.930;8.112;2023-02-26T06:41:57;101544.66;;;-1.49;84.13
35224;BME280;21367;51.930;8.112;2023-02-26T06:47:01;101554.88;;;-1.48;83.47
35224;BME280;21367;51.930;8.112;2023-02-26T06:52:05;101557.47;;;-1.39;83.64
35224;BME280;21367;51.930;8.112;2023-02-26T06:57:11;101579.97;;;-1.16;82.79
35224;BME280;21367;51.930;8.112;2023-02-26T07:02:16;101580.34;;;-1.29;82.69
35224;BME280;21367;51.930;8.112;2023-02-26T07:07:20;101593.72;;;-1.30;82.72
35224;BME280;21367;51.930;8.112;2023-02-26T07:12:26;101591.69;;;-1.41;83.42
35224;BME280;21367;51.930;8.112;2023-02-26T07:17:29;101599.44;;;-1.40;84.05
35224;BME280;21367;51.930;8.112;2023-02-26T07:22:33;101604.88;;;-1.84;84.88
35224;BME280;21367;51.930;8.112;2023-02-26T07:27:40;101610.91;;;-2.06;86.38
35224;BME280;21367;51.930;8.112;2023-02-26T07:32:44;101612.94;;;-1.39;85.13
35224;BME280;21367;51.930;8.112;2023-02-26T07:37:47;101621.13;;;-0.84;91.14
35224;BME280;21367;51.930;8.112;2023-02-26T07:42:54;101622.81;;;-1.25;86.70
35224;BME280;21367;51.930;8.112;2023-02-26T07:47:57;101626.75;;;-1.35;84.88
35224;BME280;21367;51.930;8.112;2023-02-26T07:53:01;101643.75;;;-1.42;86.65
35224;BME280;21367;51.930;8.112;2023-02-26T07:58:08;101641.47;;;-1.31;85.83
35224;BME280;21367;51.930;8.112;2023-02-26T08:03:12;101652.50;;;-0.98;83.99
35224;BME280;21367;51.930;8.112;2023-02-26T08:08:15;101657.19;;;-0.85;83.00
35224;BME280;21367;51.930;8.112;2023-02-26T08:13:21;101663.13;;;-0.84;84.48
35224;BME280;21367;51.930;8.112;2023-02-26T08:18:25;101659.13;;;-0.82;84.01
35224;BME280;21367;51.930;8.112;2023-02-26T08:23:29;101669.13;;;-1.00;83.86
35224;BME280;21367;51.930;8.112;2023-02-26T08:28:36;101676.16;;;-0.64;83.81
35224;BME280;21367;51.930;8.112;2023-02-26T08:33:40;101690.25;;;-0.33;82.70
35224;BME280;21367;51.930;8.112;2023-02-26T08:38:44;101700.94;;;-0.35;83.38
35224;BME280;21367;51.930;8.112;2023-02-26T08:43:50;101696.97;;;-0.25;80.91
35224;BME280;21367;51.930;8.112;2023-02-26T08:48:53;101714.75;;;-0.40;80.80
35224;BME280;21367;51.930;8.112;2023-02-26T08:53:57;101726.59;;;-0.15;79.93
35224;BME280;21367;51.930;8.112;2023-02-26T08:59:04;101731.41;;;0.08;79.03
35224;BME280;21367;51.930;8.112;2023-02-26T09:04:09;101734.72;;;0.16;79.61
35224;BME280;21367;51.930;8.112;2023-02-26T09:09:13;101740.28;;;-0.04;78.77
35224;BME280;21367;51.930;8.112;2023-02-26T09:14:20;101752.69;;;0.10;76.84
35224;BME280;21367;51.930;8.112;2023-02-26T09:19:23;101759.72;;;0.30;75.53
35224;BME280;21367;51.930;8.112;2023-02-26T09:24:27;101762.09;;;0.37;74.82
35224;BME280;21367;51.930;8.112;2023-02-26T09:29:34;101771.81;;;0.59;74.05
35224;BME280;21367;51.930;8.112;2023-02-26T09:34:37;101776.00;;;0.67;74.26
35224;BME280;21367;51.930;8.112;2023-02-26T09:39:41;101772.16;;;0.79;74.37
35224;BME280;21367;51.930;8.112;2023-02-26T09:44:48;101773.78;;;0.70;72.31
35224;BME280;21367;51.930;8.112;2023-02-26T09:49:58;101777.53;;;0.91;72.37
35224;BME280;21367;51.930;8.112;2023-02-26T09:55:11;101790.47;;;1.11;71.26
35224;BME280;21367;51.930;8.112;2023-02-26T10:00:23;101790.31;;;0.92;71.58
35224;BME280;21367;51.930;8.112;2023-02-26T10:05:38;101795.81;;;1.06;71.03
35224;BME280;21367;51.930;8.112;2023-02-26T10:10:48;101805.06;;;1.05;69.75
35224;BME280;21367;51.930;8.112;2023-02-26T10:15:59;101808.94;;;1.02;68.80
35224;BME280;21367;51.930;8.112;2023-02-26T10:21:07;101809.22;;;1.22;69.40
35224;BME280;21367;51.930;8.112;2023-02-26T10:26:17;101811.59;;;1.47;67.64
35224;BME280;21367;51.930;8.112;2023-02-26T10:31:31;101819.19;;;1.47;66.26
35224;BME280;21367;51.930;8.112;2023-02-26T10:36:49;101808.97;;;1.81;65.20
35224;BME280;21367;51.930;8.112;2023-02-26T10:42:00;101827.78;;;1.83;64.76
35224;BME280;21367;51.930;8.112;2023-02-26T10:47:14;101825.84;;;1.81;63.21
35224;BME280;21367;51.930;8.112;2023-02-26T10:52:24;101831.13;;;2.10;64.30
35224;BME280;21367;51.930;8.112;2023-02-26T10:57:30;101832.69;;;2.27;62.95
35224;BME280;21367;51.930;8.112;2023-02-26T11:02:40;101828.97;;;2.32;63.59
35224;BME280;21367;51.930;8.112;2023-02-26T11:07:47;101844.59;;;2.64;62.53
35224;BME280;21367;51.930;8.112;2023-02-26T11:12:53;101833.00;;;3.04;63.10
35224;BME280;21367;51.930;8.112;2023-02-26T11:18:00;101831.00;;;3.10;61.65
35224;BME280;21367;51.930;8.112;2023-02-26T11:23:08;101833.91;;;3.23;61.74
35224;BME280;21367;51.930;8.112;2023-02-26T11:28:21;101831.34;;;3.42;59.98
35224;BME280;21367;51.930;8.112;2023-02-26T11:33:35;101832.16;;;3.81;59.24
35224;BME280;21367;51.930;8.112;2023-02-26T11:38:40;101830.03;;;2.81;59.79
35224;BME280;21367;51.930;8.112;2023-02-26T11:43:53;101837.94;;;3.03;59.53
35224;BME280;21367;51.930;8.112;2023-02-26T11:49:02;101830.53;;;3.14;58.24
35224;BME280;21367;51.930;8.112;2023-02-26T11:54:19;101832.31;;;3.15;59.09
35224;BME280;21367;51.930;8.112;2023-02-26T11:59:24;101832.47;;;3.17;58.79
35224;BME280;21367;51.930;8.112;2023-02-26T12:04:30;101835.75;;;3.83;59.14
35224;BME280;21367;51.930;8.112;2023-02-26T12:09:33;101826.81;;;3.78;56.37
35224;BME280;21367;51.930;8.112;2023-02-26T12:14:51;101837.00;;;3.59;57.22
35224;BME280;21367;51.930;8.112;2023-02-26T12:20:07;101835.63;;;4.41;55.86
35224;BME280;21367;51.930;8.112;2023-02-26T12:25:26;101833.50;;;4.76;56.16
35224;BME280;21367;51.930;8.112;2023-02-26T12:30:48;101834.66;;;4.80;52.28
35224;BME280;21367;51.930;8.112;2023-02-26T12:36:10;101833.66;;;4.98;51.42
35224;BME280;21367;51.930;8.112;2023-02-26T12:41:36;101829.28;;;5.60;53.23
35224;BME280;21367;51.930;8.112;2023-02-26T12:46:51;101825.59;;;5.14;51.84
35224;BME280;21367;51.930;8.112;2023-02-26T12:52:15;101837.94;;;5.30;52.81
35224;BME280;21367;51.930;8.112;2023-02-26T12:57:38;101844.41;;;5.26;51.64
35224;BME280;21367;51.930;8.112;2023-02-26T13:03:11;101846.59;;;4.40;53.13
35224;BME280;21367;51.930;8.112;2023-02-26T13:08:27;101844.81;;;4.59;54.69
35224;BME280;21367;51.930;8.112;2023-02-26T13:13:56;101834.28;;;5.48;52.44
35224;BME280;21367;51.930;8.112;2023-02-26T13:19:10;101841.97;;;5.38;52.70
35224;BME280;21367;51.930;8.112;2023-02-26T13:24:23;101839.34;;;5.69;52.12
35224;BME280;21367;51.930;8.112;2023-02-26T13:29:33;101839.22;;;5.15;51.89
35224;BME280;21367;51.930;8.112;2023-02-26T13:34:41;101839.44;;;5.80;49.38
35224;BME280;21367;51.930;8.112;2023-02-26T13:39:49;101837.41;;;5.14;51.76
35224;BME280;21367;51.930;8.112;2023-02-26T13:45:06;101830.25;;;5.40;51.09
35224;BME280;21367;51.930;8.112;2023-02-26T13:50:26;101823.91;;;6.65;49.75
35224;BME280;21367;51.930;8.112;2023-02-26T13:55:46;101823.19;;;6.90;48.30
35224;BME280;21367;51.930;8.112;2023-02-26T14:00:58;101816.22;;;7.70;46.23
35224;BME280;21367;51.930;8.112;2023-02-26T14:06:19;101814.13;;;7.05;47.74
35224;BME280;21367;51.930;8.112;2023-02-26T14:11:45;101818.44;;;8.25;48.02
35224;BME280;21367;51.930;8.112;2023-02-26T14:17:17;101803.19;;;6.51;49.24
35224;BME280;21367;51.930;8.112;2023-02-26T14:22:31;101813.88;;;7.61;48.51
35224;BME280;21367;51.930;8.112;2023-02-26T14:27:40;101812.78;;;6.31;48.05
35224;BME280;21367;51.930;8.112;2023-02-26T14:32:47;101821.69;;;6.36;46.23
35224;BME280;21367;51.930;8.112;2023-02-26T14:37:56;101817.09;;;7.70;44.79
35224;BME280;21367;51.930;8.112;2023-02-26T14:43:06;101823.69;;;7.19;46.79
35224;BME280;21367;51.930;8.112;2023-02-26T14:48:13;101826.44;;;7.81;45.96
35224;BME280;21367;51.930;8.112;2023-02-26T14:53:46;101823.94;;;8.93;43.94
35224;BME280;21367;51.930;8.112;2023-02-26T14:59:18;101826.09;;;8.87;43.01
35224;BME280;21367;51.930;8.112;2023-02-26T15:04:45;101830.88;;;7.02;45.55
35224;BME280;21367;51.930;8.112;2023-02-26T15:10:06;101826.31;;;8.65;44.40
35224;BME280;21367;51.930;8.112;2023-02-26T15:15:29;101826.75;;;9.49;43.75
35224;BME280;21367;51.930;8.112;2023-02-26T15:20:45;101839.16;;;7.68;44.85
35224;BME280;21367;51.930;8.112;2023-02-26T15:25:51;101837.25;;;8.26;44.19
35224;BME280;21367;51.930;8.112;2023-02-26T15:31:04;101836.78;;;9.33;43.93
35224;BME280;21367;51.930;8.112;2023-02-26T15:36:11;101846.66;;;9.67;43.51
35224;BME280;21367;51.930;8.112;2023-02-26T15:41:16;101843.19;;;9.93;43.83
35224;BME280;21367;51.930;8.112;2023-02-26T15:46:26;101848.41;;;9.15;44.67
35224;BME280;21367;51.930;8.112;2023-02-26T15:51:31;101860.09;;;5.84;50.15
35224;BME280;21367;51.930;8.112;2023-02-26T15:56:37;101858.56;;;7.07;48.64
35224;BME280;21367;51.930;8.112;2023-02-26T16:01:44;101865.06;;;5.29;51.94
35224;BME280;21367;51.930;8.112;2023-02-26T16:06:51;101869.84;;;6.54;50.85
35224;BME280;21367;51.930;8.112;2023-02-26T16:11:57;101873.97;;;5.87;51.20
35224;BME280;21367;51.930;8.112;2023-02-26T16:17:07;101873.88;;;5.02;53.39
35224;BME280;21367;51.930;8.112;2023-02-26T16:22:19;101880.47;;;4.59;54.28
35224;BME280;21367;51.930;8.112;2023-02-26T16:27:25;101878.34;;;4.84;54.42
35224;BME280;21367;51.930;8.112;2023-02-26T16:32:32;101890.81;;;4.22;55.89
35224;BME280;21367;51.930;8.112;2023-02-26T16:37:43;101889.13;;;4.51;61.43
35224;BME280;21367;51.930;8.112;2023-02-26T16:42:59;101896.75;;;4.12;56.97
35224;BME280;21367;51.930;8.112;2023-02-26T16:48:12;101901.44;;;4.47;57.38
35224;BME280;21367;51.930;8.112;2023-02-26T16:53:18;101905.72;;;4.77;56.45
35224;BME280;21367;51.930;8.112;2023-02-26T16:58:23;101919.59;;;4.31;58.14
35224;BME280;21367;51.930;8.112;2023-02-26T17:03:34;101920.19;;;4.18;58.08
35224;BME280;21367;51.930;8.112;2023-02-26T17:08:45;101930.69;;;4.41;58.42
35224;BME280;21367;51.930;8.112;2023-02-26T17:14:08;101934.81;;;3.54;60.16
35224;BME280;21367;51.930;8.112;2023-02-26T17:19:15;101943.25;;;3.82;60.54
35224;BME280;21367;51.930;8.112;2023-02-26T17:24:22;101946.31;;;4.07;60.52
35224;BME280;21367;51.930;8.112;2023-02-26T17:29:31;101946.72;;;4.01;60.36
35224;BME280;21367;51.930;8.112;2023-02-26T17:34:39;101963.06;;;3.10;62.09
35224;BME280;21367;51.930;8.112;2023-02-26T17:39:43;101948.25;;;2.87;62.62
35224;BME280;21367;51.930;8.112;2023-02-26T17:44:47;101968.28;;;3.12;62.93
35224;BME280;21367;51.930;8.112;2023-02-26T17:49:55;101966.41;;;3.00;63.09
35224;BME280;21367;51.930;8.112;2023-02-26T17:54:59;101970.97;;;2.86;64.20
35224;BME280;21367;51.930;8.112;2023-02-26T18:00:04;101993.56;;;1.77;65.61
35224;BME280;21367;51.930;8.112;2023-02-26T18:05:19;101994.16;;;1.92;66.09
35224;BME280;21367;51.930;8.112;2023-02-26T18:10:23;101997.19;;;2.59;65.16
35224;BME280;21367;51.930;8.112;2023-02-26T18:15:27;101998.16;;;2.78;63.96
35224;BME280;21367;51.930;8.112;2023-02-26T18:20:33;102000.38;;;2.92;63.77
35224;BME280;21367;51.930;8.112;2023-02-26T18:25:37;102007.38;;;2.95;64.33
35224;BME280;21367;51.930;8.112;2023-02-26T18:30:42;102008.59;;;2.90;64.04
35224;BME280;21367;51.930;8.112;2023-02-26T18:35:50;102000.88;;;2.71;64.80
35224;BME280;21367;51.930;8.112;2023-02-26T18:40:55;102005.28;;;2.54;65.14
35224;BME280;21367;51.930;8.112;2023-02-26T18:46:01;102001.97;;;2.55;65.57
35224;BME280;21367;51.930;8.112;2023-02-26T18:51:08;102010.06;;;2.43;66.06
35224;BME280;21367;51.930;8.112;2023-02-26T18:56:11;102012.78;;;2.18;66.72
35224;BME280;21367;51.930;8.112;2023-02-26T19:01:15;102013.69;;;2.01;67.00
35224;BME280;21367;51.930;8.112;2023-02-26T19:06:21;102017.41;;;2.22;68.06
35224;BME280;21367;51.930;8.112;2023-02-26T19:11:25;102017.56;;;2.33;66.56
35224;BME280;21367;51.930;8.112;2023-02-26T19:16:29;102017.41;;;2.22;67.18
35224;BME280;21367;51.930;8.112;2023-02-26T19:21:38;102015.91;;;2.16;67.13
35224;BME280;21367;51.930;8.112;2023-02-26T19:26:42;102025.16;;;2.06;67.62
35224;BME280;21367;51.930;8.112;2023-02-26T19:31:46;102025.03;;;1.96;68.04
35224;BME280;21367;51.930;8.112;2023-02-26T19:36:52;102031.72;;;1.87;68.61
35224;BME280;21367;51.930;8.112;2023-02-26T19:41:56;102037.84;;;1.89;68.45
35224;BME280;21367;51.930;8.112;2023-02-26T19:47:00;102030.09;;;1.79;69.00
35224;BME280;21367;51.930;8.112;2023-02-26T19:52:07;102035.78;;;1.85;69.21
35224;BME280;21367;51.930;8.112;2023-02-26T19:57:11;102050.06;;;1.67;69.67
35224;BME280;21367;51.930;8.112;2023-02-26T20:02:15;102049.00;;;1.74;69.94
35224;BME280;21367;51.930;8.112;2023-02-26T20:07:21;102056.28;;;1.62;70.09
35224;BME280;21367;51.930;8.112;2023-02-26T20:12:25;102060.31;;;1.69;70.22
35224;BME280;21367;51.930;8.112;2023-02-26T20:17:30;102059.72;;;1.62;70.70
35224;BME280;21367;51.930;8.112;2023-02-26T20:22:36;102064.38;;;1.67;70.41
35224;BME280;21367;51.930;8.112;2023-02-26T20:27:40;102077.91;;;1.58;71.35
35224;BME280;21367;51.930;8.112;2023-02-26T20:32:43;102077.56;;;1.47;71.32
35224;BME280;21367;51.930;8.112;2023-02-26T20:37:49;102091.25;;;1.40;71.84
35224;BME280;21367;51.930;8.112;2023-02-26T20:42:53;102090.22;;;1.38;72.19
35224;BME280;21367;51.930;8.112;2023-02-26T20:47:57;102094.50;;;1.30;72.96
35224;BME280;21367;51.930;8.112;2023-02-26T20:53:03;102097.50;;;1.35;73.27
35224;BME280;21367;51.930;8.112;2023-02-26T20:58:08;102102.84;;;1.29;74.16
35224;BME280;21367;51.930;8.112;2023-02-26T21:03:11;102107.34;;;1.32;75.81
35224;BME280;21367;51.930;8.112;2023-02-26T21:08:18;102111.63;;;1.33;75.58
35224;BME280;21367;51.930;8.112;2023-02-26T21:13:22;102114.78;;;1.39;75.50
35224;BME280;21367;51.930;8.112;2023-02-26T21:18:26;102113.41;;;1.34;75.09
35224;BME280;21367;51.930;8.112;2023-02-26T21:23:32;102113.03;;;1.47;74.60
35224;BME280;21367;51.930;8.112;2023-02-26T21:28:35;102109.31;;;1.52;73.63
35224;BME280;21367;51.930;8.112;2023-02-26T21:33:39;102116.03;;;1.51;74.23
35224;BME280;21367;51.930;8.112;2023-02-26T21:38:46;102121.94;;;1.43;74.62
35224;BME280;21367;51.930;8.112;2023-02-26T21:43:50;102128.94;;;1.37;74.34
35224;BME280;21367;51.930;8.112;2023-02-26T21:48:53;102132.50;;;1.06;74.70
35224;BME280;21367;51.930;8.112;2023-02-26T21:54:00;102144.13;;;1.04;75.50
35224;BME280;21367;51.930;8.112;2023-02-26T21:59:04;102142.00;;;1.00;75.19
35224;BME280;21367;51.930;8.112;2023-02-26T22:04:08;102142.44;;;0.96;75.95
35224;BME280;21367;51.930;8.112;2023-02-26T22:09:14;102138.72;;;0.76;77.22
35224;BME280;21367;51.930;8.112;2023-02-26T22:14:19;102138.78;;;0.60;76.43
35224;BME280;21367;51.930;8.112;2023-02-26T22:19:22;102142.97;;;0.68;75.58
35224;BME280;21367;51.930;8.112;2023-02-26T22:24:29;102132.47;;;0.73;75.36
35224;BME280;21367;51.930;8.112;2023-02-26T22:29:33;102134.50;;;0.68;74.79
35224;BME280;21367;51.930;8.112;2023-02-26T22:34:36;102137.91;;;0.68;74.55
35224;BME280;21367;51.930;8.112;2023-02-26T22:39:43;102140.22;;;0.58;74.91
35224;BME280;21367;51.930;8.112;2023-02-26T22:44:46;102142.28;;;0.54;75.32
35224;BME280;21367;51.930;8.112;2023-02-26T22:49:50;102142.63;;;0.57;75.59
35224;BME280;21367;51.930;8.112;2023-02-26T22:54:56;102150.78;;;0.38;76.53
35224;BME280;21367;51.930;8.112;2023-02-26T23:00:00;102147.75;;;0.50;76.25
35224;BME280;21367;51.930;8.112;2023-02-26T23:05:08;102151.09;;;0.57;76.52
35224;BME280;21367;51.930;8.112;2023-02-26T23:10:16;102162.88;;;0.41;76.90
35224;BME280;21367;51.930;8.112;2023-02-26T23:15:21;102161.91;;;0.32;77.12
35224;BME280;21367;51.930;8.112;2023-02-26T23:20:25;102162.03;;;0.33;77.10
35224;BME280;21367;51.930;8.112;2023-02-26T23:25:31;102169.63;;;0.33;77.20
35224;BME280;21367;51.930;8.112;2023-02-26T23:30:35;102160.63;;;0.28;76.91
35224;BME280;21367;51.930;8.112;2023-02-26T23:35:38;102180.53;;;0.25;77.53
35224;BME280;21367;51.930;8.112;2023-02-26T23:40:45;102188.13;;;0.25;78.60
35224;BME280;21367;51.930;8.112;2023-02-26T23:45:49;102188.22;;;0.18;79.00
35224;BME280;21367;51.930;8.112;2023-02-26T23:50:53;102192.72;;;0.20;78.68
35224;BME280;21367;51.930;8.112;2023-02-26T23:55:59;102194.00;;;0.01;78.70
